sensor_id;sensor_type;location;lat;lon;timestamp;pressure;altitude;pressure_sealevel;temperature;humidity
22580;BME280;11456;47.030;15.396;2023-03-04T00:01:53;97750.81;;;2.23;94.36
22580;BME280;11456;47.030;15.396;2023-03-04T00:04:19;97746.66;;;2.05;93.68
22580;BME280;11456;47.030;15.396;2023-03-04T00:06:46;97749.44;;;2.04;93.92
22580;BME280;11456;47.030;15.396;2023-03-04T00:09:13;97746.66;;;2.05;94.11
22580;BME280;11456;47.030;15.396;2023-03-04T00:11:40;97744.13;;;2.04;94.07
22580;BME280;11456;47.030;15.396;2023-03-04T00:14:06;97748.03;;;1.98;93.89
22580;BME280;11456;47.030;15.396;2023-03-04T00:16:33;97748.09;;;2.37;93.49
22580;BME280;11456;47.030;15.396;2023-03-04T00:18:59;97747.72;;;2.03;94.21
22580;BME280;11456;47.030;15.396;2023-03-04T00:21:26;97744.97;;;2.04;96.10
22580;BME280;11456;47.030;15.396;2023-03-04T00:23:52;97754.59;;;2.19;96.22
22580;BME280;11456;47.030;15.396;2023-03-04T00:26:19;97750.47;;;2.01;94.94
22580;BME280;11456;47.030;15.396;2023-03-04T00:28:46;97750.84;;;1.95;95.33
22580;BME280;11456;47.030;15.396;2023-03-04T00:31:12;97747.44;;;1.93;95.35
22580;BME280;11456;47.030;15.396;2023-03-04T00:33:39;97748.09;;;1.96;94.86
22580;BME280;11456;47.030;15.396;2023-03-04T00:36:06;97749.75;;;1.85;94.60
22580;BME280;11456;47.030;15.396;2023-03-04T00:38:32;97743.09;;;1.78;94.03
22580;BME280;11456;47.030;15.396;2023-03-04T00:41:00;97750.69;;;1.55;94.21
22580;BME280;11456;47.030;15.396;2023-03-04T00:43:27;97740.25;;;1.67;94.64
22580;BME280;11456;47.030;15.396;2023-03-04T00:45:55;97750.88;;;1.67;95.04
22580;BME280;11456;47.030;15.396;2023-03-04T00:48:21;97746.78;;;1.61;94.32
22580;BME280;11456;47.030;15.396;2023-03-04T00:50:48;97741.97;;;1.68;95.37
22580;BME280;11456;47.030;15.396;2023-03-04T00:53:17;97751.63;;;1.69;94.77
22580;BME280;11456;47.030;15.396;2023-03-04T00:55:43;97740.44;;;1.49;94.72
22580;BME280;11456;47.030;15.396;2023-03-04T00:58:10;97746.53;;;1.51;95.01
22580;BME280;11456;47.030;15.396;2023-03-04T01:00:36;97739.41;;;1.52;94.40
22580;BME280;11456;47.030;15.396;2023-03-04T01:03:03;97735.16;;;1.64;94.70
22580;BME280;11456;47.030;15.396;2023-03-04T01:05:29;97725.38;;;1.36;94.89
22580;BME280;11456;47.030;15.396;2023-03-04T01:07:57;97731.75;;;1.33;94.95
22580;BME280;11456;47.030;15.396;2023-03-04T01:10:26;97724.88;;;1.29;95.43
22580;BME280;11456;47.030;15.396;2023-03-04T01:12:52;97726.44;;;1.33;95.51
22580;BME280;11456;47.030;15.396;2023-03-04T01:15:19;97725.69;;;1.45;95.27
22580;BME280;11456;47.030;15.396;2023-03-04T01:17:45;97721.50;;;1.55;95.06
22580;BME280;11456;47.030;15.396;2023-03-04T01:20:13;97712.78;;;1.25;95.83
22580;BME280;11456;47.030;15.396;2023-03-04T01:22:40;97701.22;;;1.26;96.66
22580;BME280;11456;47.030;15.396;2023-03-04T01:25:07;97706.44;;;1.28;96.33
22580;BME280;11456;47.030;15.396;2023-03-04T01:27:34;97703.66;;;1.29;96.60
22580;BME280;11456;47.030;15.396;2023-03-04T01:30:01;97704.63;;;1.14;96.12
22580;BME280;11456;47.030;15.396;2023-03-04T01:32:28;97706.13;;;1.18;95.75
22580;BME280;11456;47.030;15.396;2023-03-04T01:34:54;97708.22;;;1.13;95.67
22580;BME280;11456;47.030;15.396;2023-03-04T01:37:21;97705.00;;;1.08;95.65
22580;BME280;11456;47.030;15.396;2023-03-04T01:39:48;97703.28;;;1.07;95.06
22580;BME280;11456;47.030;15.396;2023-03-04T01:42:18;97700.06;;;1.02;95.56
22580;BME280;11456;47.030;15.396;2023-03-04T01:44:45;97704.78;;;1.11;95.38
22580;BME280;11456;47.030;15.396;2023-03-04T01:47:12;97694.38;;;1.08;94.78
22580;BME280;11456;47.030;15.396;2023-03-04T01:49:39;97694.19;;;1.11;94.65
22580;BME280;11456;47.030;15.396;2023-03-04T01:52:09;97694.19;;;1.11;94.78
22580;BME280;11456;47.030;15.396;2023-03-04T01:54:37;97696.66;;;1.14;94.52
22580;BME280;11456;47.030;15.396;2023-03-04T01:57:14;97692.69;;;1.07;94.38
22580;BME280;11456;47.030;15.396;2023-03-04T01:59:41;97694.00;;;1.14;94.26
22580;BME280;11456;47.030;15.396;2023-03-04T02:02:08;97687.75;;;1.01;93.93
22580;BME280;11456;47.030;15.396;2023-03-04T02:04:35;97685.63;;;0.92;94.28
22580;BME280;11456;47.030;15.396;2023-03-04T02:07:02;97684.88;;;0.90;94.11
22580;BME280;11456;47.030;15.396;2023-03-04T02:09:29;97676.47;;;0.97;94.09
22580;BME280;11456;47.030;15.396;2023-03-04T02:11:57;97678.84;;;1.02;94.34
22580;BME280;11456;47.030;15.396;2023-03-04T02:14:23;97678.44;;;0.94;93.49
22580;BME280;11456;47.030;15.396;2023-03-04T02:16:50;97675.59;;;0.97;93.04
22580;BME280;11456;47.030;15.396;2023-03-04T02:21:50;97670.09;;;0.86;92.41
22580;BME280;11456;47.030;15.396;2023-03-04T02:24:18;97668.72;;;0.64;93.02
22580;BME280;11456;47.030;15.396;2023-03-04T02:26:48;97668.03;;;0.76;93.27
22580;BME280;11456;47.030;15.396;2023-03-04T02:29:15;97660.31;;;0.72;93.42
22580;BME280;11456;47.030;15.396;2023-03-04T02:31:43;97662.59;;;0.64;93.60
22580;BME280;11456;47.030;15.396;2023-03-04T02:34:12;97658.34;;;0.75;93.91
22580;BME280;11456;47.030;15.396;2023-03-04T02:36:40;97654.16;;;0.71;93.37
22580;BME280;11456;47.030;15.396;2023-03-04T02:39:10;97654.38;;;0.68;92.89
22580;BME280;11456;47.030;15.396;2023-03-04T02:41:38;97646.97;;;0.73;93.30
22580;BME280;11456;47.030;15.396;2023-03-04T02:44:14;97640.72;;;0.60;92.93
22580;BME280;11456;47.030;15.396;2023-03-04T02:46:42;97648.09;;;0.55;92.98
22580;BME280;11456;47.030;15.396;2023-03-04T02:49:08;97651.50;;;0.57;93.46
22580;BME280;11456;47.030;15.396;2023-03-04T02:51:35;97644.50;;;0.56;93.35
22580;BME280;11456;47.030;15.396;2023-03-04T02:54:01;97643.69;;;0.40;93.90
22580;BME280;11456;47.030;15.396;2023-03-04T02:56:28;97638.78;;;0.48;93.02
22580;BME280;11456;47.030;15.396;2023-03-04T02:58:54;97630.22;;;0.29;93.95
22580;BME280;11456;47.030;15.396;2023-03-04T03:01:21;97628.50;;;0.28;93.82
22580;BME280;11456;47.030;15.396;2023-03-04T03:03:47;97632.66;;;0.18;94.34
22580;BME280;11456;47.030;15.396;2023-03-04T03:06:14;97632.91;;;0.43;94.14
22580;BME280;11456;47.030;15.396;2023-03-04T03:08:41;97636.31;;;0.45;94.28
22580;BME280;11456;47.030;15.396;2023-03-04T03:11:07;97633.56;;;0.47;93.70
22580;BME280;11456;47.030;15.396;2023-03-04T03:13:35;97623.22;;;0.28;93.56
22580;BME280;11456;47.030;15.396;2023-03-04T03:16:02;97616.75;;;0.18;93.95
22580;BME280;11456;47.030;15.396;2023-03-04T03:18:29;97624.00;;;0.30;94.21
22580;BME280;11456;47.030;15.396;2023-03-04T03:20:56;97623.72;;;0.34;94.54
22580;BME280;11456;47.030;15.396;2023-03-04T03:23:22;97621.19;;;0.47;94.04
22580;BME280;11456;47.030;15.396;2023-03-04T03:25:50;97622.50;;;0.40;94.01
22580;BME280;11456;47.030;15.396;2023-03-04T03:28:16;97630.06;;;0.32;94.44
22580;BME280;11456;47.030;15.396;2023-03-04T03:30:43;97623.69;;;1.49;90.21
22580;BME280;11456;47.030;15.396;2023-03-04T03:33:09;97628.53;;;0.86;90.58
22580;BME280;11456;47.030;15.396;2023-03-04T03:35:36;97624.81;;;0.60;92.60
22580;BME280;11456;47.030;15.396;2023-03-04T03:38:03;97619.47;;;0.32;93.10
22580;BME280;11456;47.030;15.396;2023-03-04T03:40:29;97617.66;;;0.03;93.97
22580;BME280;11456;47.030;15.396;2023-03-04T03:42:56;97611.63;;;0.15;94.07
22580;BME280;11456;47.030;15.396;2023-03-04T03:45:22;97613.41;;;0.00;94.81
22580;BME280;11456;47.030;15.396;2023-03-04T03:47:49;97610.69;;;0.16;95.04
22580;BME280;11456;47.030;15.396;2023-03-04T03:50:15;97605.47;;;0.14;94.38
22580;BME280;11456;47.030;15.396;2023-03-04T03:52:42;97608.25;;;0.13;93.94
22580;BME280;11456;47.030;15.396;2023-03-04T03:55:08;97601.25;;;0.12;94.09
22580;BME280;11456;47.030;15.396;2023-03-04T03:57:35;97614.06;;;0.04;93.98
22580;BME280;11456;47.030;15.396;2023-03-04T04:00:02;97601.94;;;-0.01;94.24
22580;BME280;11456;47.030;15.396;2023-03-04T04:02:37;97603.97;;;0.10;94.00
22580;BME280;11456;47.030;15.396;2023-03-04T04:05:06;97594.81;;;0.16;93.34
22580;BME280;11456;47.030;15.396;2023-03-04T04:07:33;97601.97;;;0.14;93.96
22580;BME280;11456;47.030;15.396;2023-03-04T04:09:59;97597.97;;;0.07;94.37
22580;BME280;11456;47.030;15.396;2023-03-04T04:12:26;97607.91;;;0.03;95.21
22580;BME280;11456;47.030;15.396;2023-03-04T04:14:52;97605.84;;;0.08;95.14
22580;BME280;11456;47.030;15.396;2023-03-04T04:17:19;97607.88;;;0.19;94.17
22580;BME280;11456;47.030;15.396;2023-03-04T04:19:45;97610.88;;;0.13;94.44
22580;BME280;11456;47.030;15.396;2023-03-04T04:22:13;97603.97;;;0.10;93.75
22580;BME280;11456;47.030;15.396;2023-03-04T04:24:40;97599.88;;;0.05;94.02
22580;BME280;11456;47.030;15.396;2023-03-04T04:27:06;97611.19;;;-0.08;93.46
22580;BME280;11456;47.030;15.396;2023-03-04T04:29:33;97615.63;;;-0.24;93.06
22580;BME280;11456;47.030;15.396;2023-03-04T04:31:59;97605.94;;;-0.39;93.48
22580;BME280;11456;47.030;15.396;2023-03-04T04:34:26;97604.88;;;-0.36;93.30
22580;BME280;11456;47.030;15.396;2023-03-04T04:36:52;97606.28;;;-0.45;93.74
22580;BME280;11456;47.030;15.396;2023-03-04T04:39:19;97594.81;;;-0.30;93.70
22580;BME280;11456;47.030;15.396;2023-03-04T04:41:45;97601.16;;;-0.48;93.76
22580;BME280;11456;47.030;15.396;2023-03-04T04:44:12;97605.59;;;-0.33;93.90
22580;BME280;11456;47.030;15.396;2023-03-04T04:46:39;97604.19;;;-0.24;94.54
22580;BME280;11456;47.030;15.396;2023-03-04T04:49:05;97601.63;;;-0.10;93.76
22580;BME280;11456;47.030;15.396;2023-03-04T04:51:33;97601.47;;;-0.23;94.14
22580;BME280;11456;47.030;15.396;2023-03-04T04:54:00;97592.88;;;-0.42;93.16
22580;BME280;11456;47.030;15.396;2023-03-04T04:56:27;97592.25;;;-0.63;94.16
22580;BME280;11456;47.030;15.396;2023-03-04T04:58:55;97595.03;;;-0.64;93.90
22580;BME280;11456;47.030;15.396;2023-03-04T05:01:22;97598.16;;;-0.73;93.69
22580;BME280;11456;47.030;15.396;2023-03-04T05:03:49;97591.50;;;-0.81;94.15
22580;BME280;11456;47.030;15.396;2023-03-04T05:06:18;97592.78;;;-0.88;94.93
22580;BME280;11456;47.030;15.396;2023-03-04T05:08:45;97582.19;;;-0.88;94.83
22580;BME280;11456;47.030;15.396;2023-03-04T05:11:12;97587.00;;;-0.78;94.69
22580;BME280;11456;47.030;15.396;2023-03-04T05:13:39;97593.03;;;-0.76;95.06
22580;BME280;11456;47.030;15.396;2023-03-04T05:16:05;97590.03;;;-0.70;95.11
22580;BME280;11456;47.030;15.396;2023-03-04T05:18:32;97595.44;;;-0.56;94.86
22580;BME280;11456;47.030;15.396;2023-03-04T05:21:00;97594.34;;;-0.84;93.74
22580;BME280;11456;47.030;15.396;2023-03-04T05:23:27;97594.66;;;-0.90;94.29
22580;BME280;11456;47.030;15.396;2023-03-04T05:25:54;97601.28;;;-0.83;93.65
22580;BME280;11456;47.030;15.396;2023-03-04T05:28:20;97593.88;;;-0.92;94.46
22580;BME280;11456;47.030;15.396;2023-03-04T05:30:47;97589.13;;;-0.85;94.90
22580;BME280;11456;47.030;15.396;2023-03-04T05:33:14;97595.84;;;-0.79;94.85
22580;BME280;11456;47.030;15.396;2023-03-04T05:35:42;97598.16;;;-0.73;93.86
22580;BME280;11456;47.030;15.396;2023-03-04T05:38:09;97590.22;;;-0.73;93.84
22580;BME280;11456;47.030;15.396;2023-03-04T05:40:36;97591.91;;;-0.88;94.09
22580;BME280;11456;47.030;15.396;2023-03-04T05:43:04;97591.91;;;-0.88;92.78
22580;BME280;11456;47.030;15.396;2023-03-04T05:45:30;97591.59;;;-0.98;93.24
22580;BME280;11456;47.030;15.396;2023-03-04T05:47:57;97595.94;;;-0.97;93.62
22580;BME280;11456;47.030;15.396;2023-03-04T05:50:23;97588.00;;;-0.97;94.30
22580;BME280;11456;47.030;15.396;2023-03-04T05:52:51;97591.06;;;-0.89;94.35
22580;BME280;11456;47.030;15.396;2023-03-04T05:55:17;97589.38;;;-0.90;94.50
22580;BME280;11456;47.030;15.396;2023-03-04T05:57:44;97589.03;;;-0.52;94.36
22580;BME280;11456;47.030;15.396;2023-03-04T06:00:12;97580.81;;;-0.32;93.19
22580;BME280;11456;47.030;15.396;2023-03-04T06:02:39;97595.16;;;-0.36;92.50
22580;BME280;11456;47.030;15.396;2023-03-04T06:05:06;97581.19;;;0.22;91.90
22580;BME280;11456;47.030;15.396;2023-03-04T06:07:33;97587.31;;;0.38;89.98
22580;BME280;11456;47.030;15.396;2023-03-04T06:10:02;97587.38;;;-0.08;89.93
22580;BME280;11456;47.030;15.396;2023-03-04T06:12:28;97587.75;;;0.00;91.66
22580;BME280;11456;47.030;15.396;2023-03-04T06:14:55;97590.50;;;0.29;91.14
22580;BME280;11456;47.030;15.396;2023-03-04T06:17:22;97594.03;;;0.14;91.98
22580;BME280;11456;47.030;15.396;2023-03-04T06:19:48;97594.66;;;0.33;91.43
22580;BME280;11456;47.030;15.396;2023-03-04T06:22:15;97600.31;;;0.71;91.81
22580;BME280;11456;47.030;15.396;2023-03-04T06:24:41;97593.81;;;0.76;91.85
22580;BME280;11456;47.030;15.396;2023-03-04T06:27:08;97599.31;;;1.02;93.19
22580;BME280;11456;47.030;15.396;2023-03-04T06:29:34;97596.44;;;1.19;91.55
22580;BME280;11456;47.030;15.396;2023-03-04T06:32:00;97606.66;;;1.25;93.03
22580;BME280;11456;47.030;15.396;2023-03-04T06:34:27;97593.81;;;1.60;91.82
22580;BME280;11456;47.030;15.396;2023-03-04T06:36:55;97598.72;;;1.93;92.02
22580;BME280;11456;47.030;15.396;2023-03-04T06:39:21;97603.22;;;2.05;91.17
22580;BME280;11456;47.030;15.396;2023-03-04T06:41:48;97599.50;;;2.34;90.83
22580;BME280;11456;47.030;15.396;2023-03-04T06:44:14;97610.59;;;2.79;90.38
22580;BME280;11456;47.030;15.396;2023-03-04T06:46:41;97608.47;;;2.71;90.45
22580;BME280;11456;47.030;15.396;2023-03-04T06:49:07;97604.34;;;3.05;90.12
22580;BME280;11456;47.030;15.396;2023-03-04T06:51:34;97607.38;;;3.50;88.17
22580;BME280;11456;47.030;15.396;2023-03-04T06:54:01;97611.34;;;3.32;86.22
22580;BME280;11456;47.030;15.396;2023-03-04T06:56:27;97605.72;;;3.11;84.54
22580;BME280;11456;47.030;15.396;2023-03-04T06:58:54;97606.56;;;2.73;86.03
22580;BME280;11456;47.030;15.396;2023-03-04T07:01:21;97608.25;;;3.25;86.39
22580;BME280;11456;47.030;15.396;2023-03-04T07:03:49;97607.19;;;3.28;86.74
22580;BME280;11456;47.030;15.396;2023-03-04T07:06:16;97592.78;;;3.79;84.77
22580;BME280;11456;47.030;15.396;2023-03-04T07:08:43;97598.09;;;4.16;81.84
22580;BME280;11456;47.030;15.396;2023-03-04T07:11:10;97596.94;;;4.42;78.86
22580;BME280;11456;47.030;15.396;2023-03-04T07:13:36;97593.09;;;4.46;80.51
22580;BME280;11456;47.030;15.396;2023-03-04T07:16:07;97593.22;;;4.91;78.51
22580;BME280;11456;47.030;15.396;2023-03-04T07:18:34;97594.66;;;5.84;76.48
22580;BME280;11456;47.030;15.396;2023-03-04T07:21:00;97580.81;;;6.01;73.04
22580;BME280;11456;47.030;15.396;2023-03-04T07:23:27;97587.59;;;5.83;74.01
22580;BME280;11456;47.030;15.396;2023-03-04T07:25:54;97588.44;;;6.37;72.46
22580;BME280;11456;47.030;15.396;2023-03-04T07:28:20;97585.47;;;6.20;70.03
22580;BME280;11456;47.030;15.396;2023-03-04T07:30:47;97590.34;;;6.15;68.92
22580;BME280;11456;47.030;15.396;2023-03-04T07:33:13;97587.25;;;6.30;70.79
22580;BME280;11456;47.030;15.396;2023-03-04T07:35:40;97586.50;;;7.62;67.89
22580;BME280;11456;47.030;15.396;2023-03-04T07:38:07;97585.81;;;8.20;64.98
22580;BME280;11456;47.030;15.396;2023-03-04T07:40:33;97596.03;;;8.35;63.28
22580;BME280;11456;47.030;15.396;2023-03-04T07:43:00;97587.63;;;8.10;62.45
22580;BME280;11456;47.030;15.396;2023-03-04T07:45:27;97591.81;;;7.83;61.70
22580;BME280;11456;47.030;15.396;2023-03-04T07:47:53;97586.78;;;7.99;62.46
22580;BME280;11456;47.030;15.396;2023-03-04T07:50:20;97585.50;;;7.23;65.20
22580;BME280;11456;47.030;15.396;2023-03-04T07:52:47;97590.94;;;7.73;64.92
22580;BME280;11456;47.030;15.396;2023-03-04T07:55:16;97590.28;;;6.99;65.03
22580;BME280;11456;47.030;15.396;2023-03-04T07:57:44;97581.91;;;7.74;64.21
22580;BME280;11456;47.030;15.396;2023-03-04T08:00:12;97580.47;;;7.70;64.10
22580;BME280;11456;47.030;15.396;2023-03-04T08:02:39;97575.53;;;8.25;62.69
22580;BME280;11456;47.030;15.396;2023-03-04T08:05:06;97581.06;;;7.43;66.26
22580;BME280;11456;47.030;15.396;2023-03-04T08:07:32;97570.72;;;7.69;64.26
22580;BME280;11456;47.030;15.396;2023-03-04T08:09:59;97576.28;;;6.65;66.65
22580;BME280;11456;47.030;15.396;2023-03-04T08:12:26;97569.56;;;8.12;63.05
22580;BME280;11456;47.030;15.396;2023-03-04T08:14:53;97571.25;;;9.09;62.01
22580;BME280;11456;47.030;15.396;2023-03-04T08:17:19;97562.50;;;9.07;59.52
22580;BME280;11456;47.030;15.396;2023-03-04T08:19:46;97553.72;;;9.05;61.15
22580;BME280;11456;47.030;15.396;2023-03-04T08:22:12;97554.03;;;9.02;59.73
22580;BME280;11456;47.030;15.396;2023-03-04T08:24:39;97564.00;;;9.56;59.37
22580;BME280;11456;47.030;15.396;2023-03-04T08:27:05;97553.50;;;8.69;61.75
22580;BME280;11456;47.030;15.396;2023-03-04T08:29:32;97542.66;;;9.82;57.72
22580;BME280;11456;47.030;15.396;2023-03-04T08:31:58;97546.22;;;10.27;56.57
22580;BME280;11456;47.030;15.396;2023-03-04T08:34:25;97551.97;;;8.76;60.02
22580;BME280;11456;47.030;15.396;2023-03-04T08:36:52;97543.84;;;9.70;61.21
22580;BME280;11456;47.030;15.396;2023-03-04T08:39:19;97542.28;;;9.67;57.52
22580;BME280;11456;47.030;15.396;2023-03-04T08:41:46;97550.38;;;9.30;59.53
22580;BME280;11456;47.030;15.396;2023-03-04T08:44:13;97544.72;;;9.60;58.05
22580;BME280;11456;47.030;15.396;2023-03-04T08:46:40;97535.81;;;10.32;56.08
22580;BME280;11456;47.030;15.396;2023-03-04T08:49:07;97537.97;;;9.56;58.37
22580;BME280;11456;47.030;15.396;2023-03-04T08:51:34;97532.94;;;10.16;56.80
22580;BME280;11456;47.030;15.396;2023-03-04T08:54:02;97526.94;;;11.01;54.96
22580;BME280;11456;47.030;15.396;2023-03-04T08:56:28;97521.69;;;10.30;59.69
22580;BME280;11456;47.030;15.396;2023-03-04T08:58:55;97529.75;;;10.92;56.70
22580;BME280;11456;47.030;15.396;2023-03-04T09:01:22;97517.41;;;12.25;54.36
22580;BME280;11456;47.030;15.396;2023-03-04T09:03:48;97510.66;;;12.21;52.90
22580;BME280;11456;47.030;15.396;2023-03-04T09:06:16;97509.38;;;11.83;54.94
22580;BME280;11456;47.030;15.396;2023-03-04T09:08:43;97507.75;;;12.06;53.23
22580;BME280;11456;47.030;15.396;2023-03-04T09:11:10;97504.84;;;11.91;53.08
22580;BME280;11456;47.030;15.396;2023-03-04T09:13:37;97510.50;;;12.30;54.35
22580;BME280;11456;47.030;15.396;2023-03-04T09:16:08;97505.44;;;13.08;50.58
22580;BME280;11456;47.030;15.396;2023-03-04T09:18:35;97502.56;;;13.73;49.97
22580;BME280;11456;47.030;15.396;2023-03-04T09:21:02;97490.56;;;14.07;51.11
22580;BME280;11456;47.030;15.396;2023-03-04T09:23:28;97496.56;;;13.94;48.99
22580;BME280;11456;47.030;15.396;2023-03-04T09:25:55;97489.38;;;13.70;51.96
22580;BME280;11456;47.030;15.396;2023-03-04T09:28:21;97483.72;;;13.49;48.88
22580;BME280;11456;47.030;15.396;2023-03-04T09:30:48;97484.31;;;13.20;49.86
22580;BME280;11456;47.030;15.396;2023-03-04T09:33:14;97479.56;;;14.54;48.29
22580;BME280;11456;47.030;15.396;2023-03-04T09:35:41;97477.56;;;14.93;47.24
22580;BME280;11456;47.030;15.396;2023-03-04T09:38:08;97479.69;;;16.51;43.42
22580;BME280;11456;47.030;15.396;2023-03-04T09:40:40;97463.31;;;15.58;41.80
22580;BME280;11456;47.030;15.396;2023-03-04T09:43:10;97478.19;;;14.80;41.55
22580;BME280;11456;47.030;15.396;2023-03-04T09:45:42;97469.88;;;14.82;41.80
22580;BME280;11456;47.030;15.396;2023-03-04T09:48:15;97476.38;;;15.10;40.66
22580;BME280;11456;47.030;15.396;2023-03-04T09:50:46;97469.25;;;15.24;41.05
22580;BME280;11456;47.030;15.396;2023-03-04T09:55:43;97457.47;;;15.76;39.04
22580;BME280;11456;47.030;15.396;2023-03-04T10:01:00;97450.16;;;14.88;40.71
22580;BME280;11456;47.030;15.396;2023-03-04T10:06:18;97435.84;;;15.82;38.64
22580;BME280;11456;47.030;15.396;2023-03-04T10:08:49;97437.16;;;15.86;36.27
22580;BME280;11456;47.030;15.396;2023-03-04T10:11:25;97440.56;;;15.74;34.60
22580;BME280;11456;47.030;15.396;2023-03-04T10:16:39;97436.16;;;16.09;33.86
22580;BME280;11456;47.030;15.396;2023-03-04T10:21:41;97423.25;;;16.32;35.52
22580;BME280;11456;47.030;15.396;2023-03-04T10:24:12;97413.16;;;16.26;34.66
22580;BME280;11456;47.030;15.396;2023-03-04T10:26:41;97411.06;;;16.49;33.81
22580;BME280;11456;47.030;15.396;2023-03-04T10:29:16;97409.44;;;16.76;33.14
22580;BME280;11456;47.030;15.396;2023-03-04T10:31:43;97408.66;;;16.39;32.80
22580;BME280;11456;47.030;15.396;2023-03-04T10:34:11;97403.41;;;16.80;33.08
22580;BME280;11456;47.030;15.396;2023-03-04T10:36:43;97402.19;;;16.83;32.72
22580;BME280;11456;47.030;15.396;2023-03-04T10:39:13;97399.78;;;16.73;32.56
22580;BME280;11456;47.030;15.396;2023-03-04T10:41:44;97390.69;;;17.56;32.31
22580;BME280;11456;47.030;15.396;2023-03-04T10:44:14;97390.31;;;17.25;32.84
22580;BME280;11456;47.030;15.396;2023-03-04T10:46:44;97388.09;;;17.42;33.68
22580;BME280;11456;47.030;15.396;2023-03-04T10:49:12;97383.97;;;17.52;31.55
22580;BME280;11456;47.030;15.396;2023-03-04T10:51:43;97383.59;;;18.16;30.99
22580;BME280;11456;47.030;15.396;2023-03-04T10:54:23;97383.59;;;18.16;31.79
22580;BME280;11456;47.030;15.396;2023-03-04T10:56:58;97374.38;;;18.24;30.70
22580;BME280;11456;47.030;15.396;2023-03-04T10:59:39;97367.84;;;17.51;30.98
22580;BME280;11456;47.030;15.396;2023-03-04T11:02:28;97370.34;;;17.46;32.47
22580;BME280;11456;47.030;15.396;2023-03-04T11:05:15;97363.88;;;18.14;32.48
22580;BME280;11456;47.030;15.396;2023-03-04T11:07:52;97365.44;;;17.76;30.00
22580;BME280;11456;47.030;15.396;2023-03-04T11:10:29;97358.28;;;17.68;32.17
22580;BME280;11456;47.030;15.396;2023-03-04T11:15:24;97358.00;;;18.17;29.49
22580;BME280;11456;47.030;15.396;2023-03-04T11:17:56;97353.66;;;18.62;29.14
22580;BME280;11456;47.030;15.396;2023-03-04T11:20:31;97348.22;;;17.62;32.30
22580;BME280;11456;47.030;15.396;2023-03-04T11:23:01;97341.63;;;18.04;32.45
22580;BME280;11456;47.030;15.396;2023-03-04T11:25:31;97340.22;;;18.67;31.97
22580;BME280;11456;47.030;15.396;2023-03-04T11:28:05;97338.22;;;17.76;31.44
22580;BME280;11456;47.030;15.396;2023-03-04T11:30:49;97330.06;;;17.82;32.74
22580;BME280;11456;47.030;15.396;2023-03-04T11:35:57;97325.53;;;18.35;31.79
22580;BME280;11456;47.030;15.396;2023-03-04T11:38:47;97324.22;;;18.18;32.08
22580;BME280;11456;47.030;15.396;2023-03-04T11:41:46;97327.78;;;18.12;32.61
22580;BME280;11456;47.030;15.396;2023-03-04T11:44:05;97319.97;;;17.76;32.62
22580;BME280;11456;47.030;15.396;2023-03-04T11:49:42;97316.28;;;17.43;32.77
22580;BME280;11456;47.030;15.396;2023-03-04T11:52:18;97303.06;;;18.47;31.95
22580;BME280;11456;47.030;15.396;2023-03-04T11:55:33;97309.56;;;18.46;31.12
22580;BME280;11456;47.030;15.396;2023-03-04T11:57:39;97299.88;;;18.89;31.14
22580;BME280;11456;47.030;15.396;2023-03-04T12:05:25;97284.63;;;18.68;30.21
22580;BME280;11456;47.030;15.396;2023-03-04T12:10:30;97282.53;;;17.98;29.79
22580;BME280;11456;47.030;15.396;2023-03-04T12:16:08;97284.19;;;18.71;29.31
22580;BME280;11456;47.030;15.396;2023-03-04T12:26:32;97264.78;;;19.12;29.08
22580;BME280;11456;47.030;15.396;2023-03-04T12:36:44;97251.88;;;19.77;28.52
22580;BME280;11456;47.030;15.396;2023-03-04T12:44:18;97251.47;;;18.25;29.62
22580;BME280;11456;47.030;15.396;2023-03-04T12:49:25;97236.25;;;19.53;28.83
22580;BME280;11456;47.030;15.396;2023-03-04T12:51:58;97238.47;;;19.69;28.53
22580;BME280;11456;47.030;15.396;2023-03-04T12:54:42;97233.72;;;19.89;28.57
22580;BME280;11456;47.030;15.396;2023-03-04T12:57:20;97224.41;;;19.97;28.40
22580;BME280;11456;47.030;15.396;2023-03-04T13:05:28;97225.59;;;18.94;29.03
22580;BME280;11456;47.030;15.396;2023-03-04T13:10:27;97217.81;;;18.97;29.03
22580;BME280;11456;47.030;15.396;2023-03-04T13:12:55;97217.34;;;19.07;29.94
22580;BME280;11456;47.030;15.396;2023-03-04T13:15:26;97218.47;;;19.37;28.59
22580;BME280;11456;47.030;15.396;2023-03-04T13:17:57;97218.38;;;19.88;28.29
22580;BME280;11456;47.030;15.396;2023-03-04T13:32:58;97208.97;;;19.46;28.82
22580;BME280;11456;47.030;15.396;2023-03-04T13:35:48;97204.59;;;19.39;27.57
22580;BME280;11456;47.030;15.396;2023-03-04T13:38:20;97191.13;;;17.62;30.24
22580;BME280;11456;47.030;15.396;2023-03-04T13:43:51;97190.72;;;18.05;30.45
22580;BME280;11456;47.030;15.396;2023-03-04T13:51:18;97177.25;;;19.52;27.47
22580;BME280;11456;47.030;15.396;2023-03-04T13:56:37;97172.16;;;18.73;29.79
22580;BME280;11456;47.030;15.396;2023-03-04T13:59:10;97170.31;;;19.05;28.79
22580;BME280;11456;47.030;15.396;2023-03-04T14:06:41;97163.84;;;19.37;28.27
22580;BME280;11456;47.030;15.396;2023-03-04T14:09:12;97155.41;;;18.50;29.51
22580;BME280;11456;47.030;15.396;2023-03-04T14:11:40;97161.22;;;19.17;28.45
22580;BME280;11456;47.030;15.396;2023-03-04T14:14:14;97159.75;;;19.15;28.44
22580;BME280;11456;47.030;15.396;2023-03-04T14:16:46;97155.38;;;18.63;29.25
22580;BME280;11456;47.030;15.396;2023-03-04T14:24:56;97145.34;;;18.43;29.41
22580;BME280;11456;47.030;15.396;2023-03-04T14:27:22;97135.00;;;19.16;28.77
22580;BME280;11456;47.030;15.396;2023-03-04T14:29:55;97135.41;;;17.85;29.77
22580;BME280;11456;47.030;15.396;2023-03-04T14:32:23;97141.94;;;18.74;29.52
22580;BME280;11456;47.030;15.396;2023-03-04T14:34:55;97132.44;;;17.80;30.66
22580;BME280;11456;47.030;15.396;2023-03-04T14:37:26;97132.72;;;18.69;29.17
22580;BME280;11456;47.030;15.396;2023-03-04T14:39:57;97136.59;;;18.28;30.00
22580;BME280;11456;47.030;15.396;2023-03-04T14:42:26;97136.63;;;18.02;30.27